Time;durP1;ratioP1;P1;durP2;ratioP2;P2;SDS_P1;SDS_P2;PMS_P1;PMS_P2;Temp;Humidity;BMP_temperature;BMP_pressure;BME280_temperature;BME280_humidity;BME280_pressure;Samples;Min_cycle;Max_cycle;Signal;HPM_P1;HPM_P2
2023/01/09 00:02:14;;;;;;;10.73;8.17;;;;;;;;;;4986488;28;20214;-90
2023/01/09 00:05:19;;;;;;;15.47;9.13;;;;;;;;;;4964429;28;20183;-89
2023/01/09 00:08:23;;;;;;;12.50;9.23;;;;;;;;;;4975665;28;20211;-89
2023/01/09 00:11:28;;;;;;;12.50;9.30;;;;;;;;;;4975007;28;20218;-89
2023/01/09 00:14:32;;;;;;;13.40;8.97;;;;;;;;;;4975213;28;20179;-89
2023/01/09 00:17:36;;;;;;;12.47;9.53;;;;;;;;;;4964151;28;20175;-89
2023/01/09 00:20:40;;;;;;;11.13;9.07;;;;;;;;;;4953964;28;20218;-89
2023/01/09 00:23:45;;;;;;;12.63;9.07;;;;;;;;;;4975991;28;20175;-88
2023/01/09 00:26:49;;;;;;;15.10;9.93;;;;;;;;;;4976142;28;20179;-88
2023/01/09 00:29:56;;;;;;;14.17;10.90;;;;;;;;;;4987462;28;20255;-89
2023/01/09 00:33:00;;;;;;;14.50;10.77;;;;;;;;;;4986904;28;20183;-87
2023/01/09 00:36:05;;;;;;;15.37;11.50;;;;;;;;;;4954424;28;20202;-90
2023/01/09 00:39:09;;;;;;;16.63;12.20;;;;;;;;;;4976852;28;20529;-90
2023/01/09 00:42:20;;;;;;;17.77;11.47;;;;;;;;;;4963278;28;20226;-89
2023/01/09 00:45:27;;;;;;;16.60;11.70;;;;;;;;;;4963427;28;20183;-89
2023/01/09 00:48:34;;;;;;;16.67;11.93;;;;;;;;;;4952686;28;20207;-89
2023/01/09 00:51:40;;;;;;;16.63;11.97;;;;;;;;;;4977881;28;20226;-88
2023/01/09 00:54:45;;;;;;;15.53;11.67;;;;;;;;;;4966688;28;20183;-89
2023/01/09 00:57:49;;;;;;;15.37;11.47;;;;;;;;;;4966358;28;20199;-89
2023/01/09 01:00:53;;;;;;;16.57;12.13;;;;;;;;;;4955424;28;20218;-89
2023/01/09 01:03:57;;;;;;;17.47;11.77;;;;;;;;;;4966828;28;20183;-89
2023/01/09 01:10:25;;;;;;;18.17;11.87;;;;;;;;;;4966304;28;20658;-89
2023/01/09 01:13:30;;;;;;;17.17;11.53;;;;;;;;;;4955269;28;20183;-88
2023/01/09 01:16:33;;;;;;;16.23;12.10;;;;;;;;;;4977006;28;20634;-89
2023/01/09 01:19:38;;;;;;;17.83;12.23;;;;;;;;;;4954796;28;20212;-88
2023/01/09 01:22:42;;;;;;;16.87;11.63;;;;;;;;;;4966675;28;20521;-88
2023/01/09 01:25:46;;;;;;;16.53;11.60;;;;;;;;;;4977282;28;20202;-88
2023/01/09 01:28:50;;;;;;;14.77;10.83;;;;;;;;;;4954311;28;20230;-88
2023/01/09 01:31:54;;;;;;;14.53;10.93;;;;;;;;;;4965463;28;20222;-89
2023/01/09 01:34:58;;;;;;;14.83;9.97;;;;;;;;;;4965380;28;20187;-89
2023/01/09 01:38:03;;;;;;;15.60;11.10;;;;;;;;;;4976283;28;20198;-89
2023/01/09 01:41:07;;;;;;;17.57;11.60;;;;;;;;;;4965175;28;20210;-89
2023/01/09 01:44:49;;;;;;;14.57;10.50;;;;;;;;;;4954705;28;20520;-88
2023/01/09 01:48:00;;;;;;;15.13;10.90;;;;;;;;;;4976560;28;20179;-88
2023/01/09 01:51:06;;;;;;;16.07;11.33;;;;;;;;;;4953917;28;20567;-88
2023/01/09 01:54:16;;;;;;;15.13;11.37;;;;;;;;;;4965703;28;20199;-88
2023/01/09 01:57:21;;;;;;;14.03;10.30;;;;;;;;;;4965181;28;20635;-88
2023/01/09 02:00:30;;;;;;;13.90;9.97;;;;;;;;;;4987195;28;20567;-88
2023/01/09 02:03:36;;;;;;;12.27;9.33;;;;;;;;;;4977154;28;20187;-89
2023/01/09 02:06:42;;;;;;;14.63;10.90;;;;;;;;;;4976283;28;20183;-88
2023/01/09 02:09:47;;;;;;;14.60;11.13;;;;;;;;;;4976341;28;20211;-89
2023/01/09 02:12:52;;;;;;;13.77;10.73;;;;;;;;;;4976326;28;20183;-89
2023/01/09 02:16:34;;;;;;;17.57;12.07;;;;;;;;;;4954182;28;20510;-89
2023/01/09 02:19:59;;;;;;;16.63;11.53;;;;;;;;;;4986976;28;20203;-89
2023/01/09 02:23:22;;;;;;;17.03;12.27;;;;;;;;;;4954062;28;20187;-88
2023/01/09 02:26:39;;;;;;;15.30;11.17;;;;;;;;;;4953383;28;20282;-89
2023/01/09 02:30:15;;;;;;;19.47;11.83;;;;;;;;;;4953795;28;20215;-89
2023/01/09 02:33:37;;;;;;;14.27;10.70;;;;;;;;;;4953948;28;20187;-89
2023/01/09 02:37:03;;;;;;;13.83;10.40;;;;;;;;;;4953511;28;20523;-89
2023/01/09 02:40:23;;;;;;;13.40;10.50;;;;;;;;;;4953506;28;20179;-89
2023/01/09 02:43:28;;;;;;;14.40;10.60;;;;;;;;;;4953697;28;20189;-89
2023/01/09 02:46:32;;;;;;;12.93;9.27;;;;;;;;;;4953675;28;20183;-89
2023/01/09 02:49:38;;;;;;;14.20;10.50;;;;;;;;;;4953753;28;20215;-89
2023/01/09 02:53:10;;;;;;;13.70;9.97;;;;;;;;;;4964276;28;20199;-89
2023/01/09 02:56:42;;;;;;;14.17;9.83;;;;;;;;;;4975977;28;20187;-90
2023/01/09 02:59:58;;;;;;;11.70;8.93;;;;;;;;;;4952921;28;20179;-90
2023/01/09 03:03:15;;;;;;;13.03;9.30;;;;;;;;;;4952862;28;20195;-89
2023/01/09 03:06:44;;;;;;;13.47;8.77;;;;;;;;;;4986138;28;20187;-89
2023/01/09 03:09:51;;;;;;;11.77;9.43;;;;;;;;;;4953188;28;20670;-89
2023/01/09 03:12:57;;;;;;;12.73;8.97;;;;;;;;;;4963063;28;20339;-89
2023/01/09 03:16:06;;;;;;;11.83;8.60;;;;;;;;;;4963484;28;20186;-89
2023/01/09 03:19:15;;;;;;;12.83;9.07;;;;;;;;;;4974612;28;20547;-89
2023/01/09 03:22:19;;;;;;;12.23;9.23;;;;;;;;;;4953027;28;20244;-89
2023/01/09 03:25:25;;;;;;;11.93;9.43;;;;;;;;;;4964079;28;20183;-89
2023/01/09 03:28:29;;;;;;;12.50;9.60;;;;;;;;;;4974747;28;20518;-89
2023/01/09 03:31:33;;;;;;;13.30;9.43;;;;;;;;;;4953030;28;20210;-90
2023/01/09 03:34:37;;;;;;;11.97;9.87;;;;;;;;;;4965166;28;20179;-89
2023/01/09 03:37:41;;;;;;;12.97;9.13;;;;;;;;;;4953580;28;20187;-89
2023/01/09 03:40:45;;;;;;;12.97;9.17;;;;;;;;;;4975829;28;20693;-89
2023/01/09 03:43:49;;;;;;;11.23;8.50;;;;;;;;;;4975669;28;20187;-89
2023/01/09 03:46:54;;;;;;;13.50;8.80;;;;;;;;;;4987298;28;20207;-89
2023/01/09 03:49:58;;;;;;;12.10;8.37;;;;;;;;;;4976093;28;20214;-89
2023/01/09 03:53:02;;;;;;;10.33;8.33;;;;;;;;;;4975226;28;20631;-89
2023/01/09 03:56:06;;;;;;;12.87;8.73;;;;;;;;;;4979936;28;20183;-89
2023/01/09 03:59:11;;;;;;;12.40;8.33;;;;;;;;;;4960307;28;20175;-89
2023/01/09 04:02:16;;;;;;;10.87;8.77;;;;;;;;;;4961568;28;20214;-90
2023/01/09 04:05:20;;;;;;;11.60;7.80;;;;;;;;;;4973321;28;20187;-90
2023/01/09 04:08:24;;;;;;;10.57;8.40;;;;;;;;;;4984032;28;20190;-89
2023/01/09 04:11:28;;;;;;;9.90;7.77;;;;;;;;;;4960965;28;20211;-90
2023/01/09 04:14:33;;;;;;;12.00;8.47;;;;;;;;;;4970581;28;20198;-89
2023/01/09 04:17:37;;;;;;;13.33;9.33;;;;;;;;;;4970682;28;20183;-90
2023/01/09 04:20:45;;;;;;;9.87;7.97;;;;;;;;;;4969077;28;20214;-89
2023/01/09 04:23:49;;;;;;;10.23;7.90;;;;;;;;;;4991040;28;20187;-89
2023/01/09 04:26:54;;;;;;;11.97;7.77;;;;;;;;;;4971959;28;20622;-90
2023/01/09 04:29:59;;;;;;;10.03;7.50;;;;;;;;;;4971500;28;20211;-89
2023/01/09 04:33:03;;;;;;;9.73;7.13;;;;;;;;;;4981820;28;20198;-90
2023/01/09 04:36:08;;;;;;;10.33;7.07;;;;;;;;;;4970240;28;20183;-89
2023/01/09 04:39:12;;;;;;;9.47;6.17;;;;;;;;;;4969739;28;20183;-90
2023/01/09 04:42:16;;;;;;;10.67;7.40;;;;;;;;;;4980227;28;20701;-89
2023/01/09 04:45:20;;;;;;;10.07;7.37;;;;;;;;;;4979604;28;20202;-90
2023/01/09 04:48:24;;;;;;;9.83;7.70;;;;;;;;;;4990733;28;20198;-90
2023/01/09 04:51:28;;;;;;;9.20;7.43;;;;;;;;;;4979201;28;20214;-89
2023/01/09 04:54:33;;;;;;;10.37;8.07;;;;;;;;;;4978472;28;20183;-89
2023/01/09 04:57:37;;;;;;;10.50;7.73;;;;;;;;;;4967627;28;20183;-89
2023/01/09 05:00:41;;;;;;;12.90;7.23;;;;;;;;;;4978318;28;20690;-89
2023/01/09 05:03:45;;;;;;;9.03;7.40;;;;;;;;;;4978525;28;20183;-89
2023/01/09 05:06:49;;;;;;;10.87;7.73;;;;;;;;;;4955825;28;20175;-90
2023/01/09 05:09:54;;;;;;;9.83;7.40;;;;;;;;;;4977913;28;20203;-89
2023/01/09 05:12:58;;;;;;;12.40;8.53;;;;;;;;;;4977611;28;20179;-89
2023/01/09 05:16:02;;;;;;;9.43;6.97;;;;;;;;;;4977692;28;20187;-89
2023/01/09 05:19:06;;;;;;;9.73;7.73;;;;;;;;;;4977606;28;20581;-90
2023/01/09 05:22:11;;;;;;;8.67;7.00;;;;;;;;;;4977301;28;20226;-89
2023/01/09 05:25:15;;;;;;;9.57;6.77;;;;;;;;;;4977795;28;20187;-89
2023/01/09 05:28:19;;;;;;;9.00;6.70;;;;;;;;;;4977428;28;20202;-89
2023/01/09 05:31:25;;;;;;;9.57;5.77;;;;;;;;;;4978142;28;20223;-89
2023/01/09 05:34:30;;;;;;;6.27;4.70;;;;;;;;;;4967307;28;20186;-89
2023/01/09 05:37:34;;;;;;;6.33;4.37;;;;;;;;;;4977527;28;20182;-89
2023/01/09 05:40:38;;;;;;;4.20;3.13;;;;;;;;;;4966436;28;20555;-90
2023/01/09 05:43:42;;;;;;;3.27;2.80;;;;;;;;;;4977160;28;20182;-89
2023/01/09 05:46:46;;;;;;;2.83;2.50;;;;;;;;;;4966563;28;20195;-90
2023/01/09 05:49:51;;;;;;;3.23;2.40;;;;;;;;;;4977156;28;20215;-89
2023/01/09 05:52:55;;;;;;;2.87;2.30;;;;;;;;;;4966248;28;20182;-89
2023/01/09 05:55:59;;;;;;;2.50;2.10;;;;;;;;;;4977470;28;20202;-90
2023/01/09 05:59:03;;;;;;;2.40;2.10;;;;;;;;;;4977289;28;20191;-90
2023/01/09 06:02:07;;;;;;;2.27;1.73;;;;;;;;;;4977118;28;20218;-88
2023/01/09 06:05:11;;;;;;;2.30;2.00;;;;;;;;;;4977050;28;20187;-89
2023/01/09 06:08:16;;;;;;;2.30;1.83;;;;;;;;;;4976636;28;20619;-89
2023/01/09 06:11:20;;;;;;;1.70;1.60;;;;;;;;;;4987658;28;20234;-89
2023/01/09 06:14:24;;;;;;;1.57;1.40;;;;;;;;;;4976528;28;20174;-89
2023/01/09 06:17:28;;;;;;;1.37;1.23;;;;;;;;;;4966115;28;20179;-89
2023/01/09 06:20:33;;;;;;;1.37;1.20;;;;;;;;;;4976589;28;20211;-88
2023/01/09 06:23:37;;;;;;;1.87;1.57;;;;;;;;;;4965502;28;20190;-89
2023/01/09 06:26:41;;;;;;;1.30;1.10;;;;;;;;;;4965681;28;20186;-89
2023/01/09 06:29:45;;;;;;;1.57;1.23;;;;;;;;;;4965012;28;20183;-89
2023/01/09 06:32:49;;;;;;;1.10;0.97;;;;;;;;;;4976272;28;20175;-89
2023/01/09 06:35:53;;;;;;;1.10;1.00;;;;;;;;;;4981123;28;20208;-88
2023/01/09 06:38:58;;;;;;;1.30;1.10;;;;;;;;;;4976515;28;20182;-88
2023/01/09 06:42:02;;;;;;;1.93;1.73;;;;;;;;;;4989846;23;20249;-84
2023/01/09 06:45:07;;;;;;;1.70;1.10;;;;;;;;;;4998757;28;20198;-86
2023/01/09 06:48:11;;;;;;;2.67;1.50;;;;;;;;;;4986538;28;20178;-86
2023/01/09 06:51:15;;;;;;;2.40;1.40;;;;;;;;;;4994209;28;20753;-88
2023/01/09 06:54:20;;;;;;;1.40;1.30;;;;;;;;;;4994554;28;20685;-87
2023/01/09 06:57:27;;;;;;;0.83;0.70;;;;;;;;;;4995756;28;20542;-87
2023/01/09 07:00:32;;;;;;;0.80;0.60;;;;;;;;;;4983977;28;20733;-86
2023/01/09 07:03:36;;;;;;;1.00;0.80;;;;;;;;;;4994376;28;20685;-87
2023/01/09 07:06:40;;;;;;;1.30;0.70;;;;;;;;;;4984449;28;20689;-88
2023/01/09 07:09:44;;;;;;;0.63;0.50;;;;;;;;;;4985292;28;20178;-86
2023/01/09 07:12:48;;;;;;;0.60;0.50;;;;;;;;;;5007568;28;20523;-88
2023/01/09 07:15:52;;;;;;;0.70;0.50;;;;;;;;;;4996836;28;20186;-86
2023/01/09 07:18:56;;;;;;;3.73;1.70;;;;;;;;;;4997246;28;20626;-89
2023/01/09 07:22:00;;;;;;;0.37;0.37;;;;;;;;;;4995502;28;20218;-90
2023/01/09 07:25:05;;;;;;;0.67;0.67;;;;;;;;;;5006415;28;20186;-89
2023/01/09 07:28:09;;;;;;;1.07;0.40;;;;;;;;;;4984193;28;20182;-89
2023/01/09 07:31:13;;;;;;;0.90;0.63;;;;;;;;;;4984455;28;20251;-89
2023/01/09 07:34:18;;;;;;;0.50;0.50;;;;;;;;;;4983880;28;20191;-88
2023/01/09 07:37:22;;;;;;;0.60;0.40;;;;;;;;;;4994827;28;20201;-89
2023/01/09 07:40:26;;;;;;;0.63;0.60;;;;;;;;;;5006433;28;20213;-89
2023/01/09 07:43:30;;;;;;;4.63;0.60;;;;;;;;;;4995303;28;20181;-89
2023/01/09 07:46:34;;;;;;;1.80;0.50;;;;;;;;;;5006712;28;20178;-88
2023/01/09 07:49:38;;;;;;;0.83;0.60;;;;;;;;;;4984236;28;20178;-90
2023/01/09 07:52:44;;;;;;;0.70;0.40;;;;;;;;;;4983806;28;20179;-90
2023/01/09 07:55:49;;;;;;;0.50;0.50;;;;;;;;;;4994796;28;20198;-89
2023/01/09 07:58:53;;;;;;;0.50;0.40;;;;;;;;;;5007327;28;20202;-89
2023/01/09 08:01:57;;;;;;;0.50;0.40;;;;;;;;;;5000513;28;20214;-88
2023/01/09 08:05:02;;;;;;;0.40;0.40;;;;;;;;;;5000683;28;20197;-88
2023/01/09 08:08:06;;;;;;;1.20;0.60;;;;;;;;;;5004417;28;20186;-88
2023/01/09 08:11:10;;;;;;;0.70;0.70;;;;;;;;;;5000179;28;20226;-88
2023/01/09 08:14:14;;;;;;;0.40;0.40;;;;;;;;;;5002871;28;20219;-88
2023/01/09 08:17:19;;;;;;;33.40;20.33;;;;;;;;;;5003032;28;20174;-88
2023/01/09 08:20:23;;;;;;;1.70;1.43;;;;;;;;;;5017660;28;20186;-89
2023/01/09 08:23:27;;;;;;;1.00;0.90;;;;;;;;;;4998951;28;20186;-89
2023/01/09 08:26:32;;;;;;;0.53;0.53;;;;;;;;;;4998935;28;20182;-90
2023/01/09 08:29:35;;;;;;;1.67;1.13;;;;;;;;;;5009432;28;20178;-90
2023/01/09 08:32:40;;;;;;;0.70;0.63;;;;;;;;;;4998211;28;20190;-89
2023/01/09 08:35:44;;;;;;;1.27;0.70;;;;;;;;;;4998858;28;20634;-89
2023/01/09 08:39:18;;;;;;;0.93;0.90;;;;;;;;;;5009822;28;20178;-89
2023/01/09 08:49:08;;;;;;;4.13;2.20;;;;;;;;;;5020797;28;20178;-88
2023/01/09 08:52:12;;;;;;;1.43;1.00;;;;;;;;;;4988356;28;20221;-88
2023/01/09 08:55:17;;;;;;;2.30;1.17;;;;;;;;;;5012503;28;20186;-88
2023/01/09 08:58:21;;;;;;;1.90;1.70;;;;;;;;;;4985377;28;20186;-88
2023/01/09 09:01:25;;;;;;;7.07;2.30;;;;;;;;;;4996845;28;20210;-84
2023/01/09 09:04:30;;;;;;;1.13;1.00;;;;;;;;;;5005332;28;20174;-86
2023/01/09 09:07:34;;;;;;;0.60;0.50;;;;;;;;;;5015189;28;20661;-89
2023/01/09 09:10:38;;;;;;;2.23;0.50;;;;;;;;;;5001195;28;20217;-86
2023/01/09 09:13:42;;;;;;;1.80;0.60;;;;;;;;;;5019763;28;20198;-86
2023/01/09 09:16:48;;;;;;;4.53;3.83;;;;;;;;;;5019706;28;20182;-87
2023/01/09 09:19:52;;;;;;;1.87;0.80;;;;;;;;;;5014734;28;20190;-87
2023/01/09 09:22:57;;;;;;;2.97;2.67;;;;;;;;;;5008486;28;20174;-87
2023/01/09 09:26:01;;;;;;;6.83;5.23;;;;;;;;;;4987330;28;20198;-86
2023/01/09 09:29:06;;;;;;;2.47;1.50;;;;;;;;;;5020311;28;20206;-86
2023/01/09 09:32:10;;;;;;;3.23;2.67;;;;;;;;;;5009883;28;20717;-86
2023/01/09 09:35:19;;;;;;;1.53;0.90;;;;;;;;;;4986458;28;20197;-86
2023/01/09 09:38:23;;;;;;;8.87;6.10;;;;;;;;;;4986204;28;20187;-86
2023/01/09 09:45:43;;;;;;;4.27;3.23;;;;;;;;;;5008893;28;20191;-88
2023/01/09 09:48:54;;;;;;;5.83;4.20;;;;;;;;;;5008834;28;20193;-87
2023/01/09 09:52:19;;;;;;;9.50;4.47;;;;;;;;;;4998283;28;20222;-88
2023/01/09 09:55:29;;;;;;;1.20;1.00;;;;;;;;;;4975859;28;20190;-85
2023/01/09 09:58:52;;;;;;;2.13;1.90;;;;;;;;;;4997514;28;20661;-85
2023/01/09 10:02:07;;;;;;;2.23;1.00;;;;;;;;;;4987050;28;20210;-84
2023/01/09 10:05:23;;;;;;;1.40;1.20;;;;;;;;;;5008804;28;20542;-83
2023/01/09 10:08:35;;;;;;;2.00;1.80;;;;;;;;;;5009824;28;20202;-83
2023/01/09 10:11:48;;;;;;;1.60;1.50;;;;;;;;;;4998178;28;20226;-86
2023/01/09 10:14:55;;;;;;;0.93;0.90;;;;;;;;;;5014277;28;20190;-83
2023/01/09 10:18:47;;;;;;;1.20;0.80;;;;;;;;;;5002489;28;20178;-82
2023/01/09 10:22:21;;;;;;;0.43;0.43;;;;;;;;;;4977945;28;20226;-85
2023/01/09 10:25:39;;;;;;;3.40;1.00;;;;;;;;;;4990113;28;20185;-84
2023/01/09 10:28:50;;;;;;;2.60;1.00;;;;;;;;;;4989293;28;20201;-83
2023/01/09 10:32:03;;;;;;;5.93;1.37;;;;;;;;;;5011601;28;20222;-83
2023/01/09 10:36:01;;;;;;;3.47;1.97;;;;;;;;;;4988538;28;20186;-85
2023/01/09 10:39:15;;;;;;;1.10;0.73;;;;;;;;;;4985439;28;20181;-84
2023/01/09 10:42:32;;;;;;;3.00;1.40;;;;;;;;;;4992606;28;20226;-87
2023/01/09 10:45:55;;;;;;;2.97;1.10;;;;;;;;;;5006787;28;20182;-86
2023/01/09 10:49:02;;;;;;;2.30;0.80;;;;;;;;;;5007896;28;20182;-87
2023/01/09 10:52:17;;;;;;;2.33;1.10;;;;;;;;;;5001801;28;20221;-85
2023/01/09 10:55:38;;;;;;;3.33;0.90;;;;;;;;;;4999683;28;20566;-85
2023/01/09 10:58:42;;;;;;;3.57;1.27;;;;;;;;;;4999423;28;20186;-85
2023/01/09 11:01:47;;;;;;;2.27;0.90;;;;;;;;;;4999985;28;20218;-84
2023/01/09 11:04:51;;;;;;;9.67;2.23;;;;;;;;;;4998711;28;20201;-86
2023/01/09 11:08:00;;;;;;;3.20;1.30;;;;;;;;;;4998102;28;20178;-85
2023/01/09 11:11:04;;;;;;;3.50;2.23;;;;;;;;;;5009751;28;20229;-84
2023/01/09 11:14:29;;;;;;;2.80;1.20;;;;;;;;;;5010337;28;20177;-85
2023/01/09 11:17:33;;;;;;;2.47;1.40;;;;;;;;;;5010024;28;20186;-84
2023/01/09 11:20:37;;;;;;;3.73;2.13;;;;;;;;;;4997424;28;20214;-85
2023/01/09 11:23:41;;;;;;;2.50;1.47;;;;;;;;;;4997454;28;20670;-84
2023/01/09 11:26:48;;;;;;;4.77;1.13;;;;;;;;;;4996615;28;20182;-85
2023/01/09 11:30:15;;;;;;;1.37;0.80;;;;;;;;;;5008625;28;20186;-84
2023/01/09 11:33:24;;;;;;;3.50;0.80;;;;;;;;;;4998852;28;20206;-85
2023/01/09 11:36:29;;;;;;;1.10;0.63;;;;;;;;;;4998553;28;20202;-84
2023/01/09 11:39:36;;;;;;;1.80;0.70;;;;;;;;;;4999956;28;20182;-84
2023/01/09 11:43:00;;;;;;;1.63;0.67;;;;;;;;;;4994777;28;20222;-87
2023/01/09 11:46:07;;;;;;;3.07;0.60;;;;;;;;;;4994290;28;20186;-87
2023/01/09 11:49:12;;;;;;;1.07;0.50;;;;;;;;;;4994920;28;20194;-87
2023/01/09 11:52:21;;;;;;;3.97;0.90;;;;;;;;;;5005432;28;20218;-87
2023/01/09 11:55:26;;;;;;;2.53;1.00;;;;;;;;;;5006543;28;20206;-89
2023/01/09 11:58:33;;;;;;;3.90;0.80;;;;;;;;;;4994414;28;20630;-89
2023/01/09 12:01:56;;;;;;;2.47;0.83;;;;;;;;;;5004668;28;20214;-90
2023/01/09 12:05:04;;;;;;;4.43;0.80;;;;;;;;;;5005195;28;20182;-89
2023/01/09 12:08:20;;;;;;;1.80;0.67;;;;;;;;;;5004966;28;20201;-89
2023/01/09 12:11:51;;;;;;;2.53;0.70;;;;;;;;;;4993397;28;20222;-89
2023/01/09 12:15:14;;;;;;;4.23;0.70;;;;;;;;;;4982594;28;20202;-89
2023/01/09 12:18:54;;;;;;;5.57;1.13;;;;;;;;;;4993375;28;20178;-90
2023/01/09 12:22:15;;;;;;;3.43;0.70;;;;;;;;;;4983729;28;20216;-89
2023/01/09 12:25:33;;;;;;;2.47;0.57;;;;;;;;;;4971322;28;20174;-89
2023/01/09 12:28:52;;;;;;;4.47;0.90;;;;;;;;;;4982177;28;20547;-89
2023/01/09 12:32:14;;;;;;;2.57;0.60;;;;;;;;;;4971476;28;20218;-89
2023/01/09 12:35:32;;;;;;;4.17;0.70;;;;;;;;;;4986838;28;20202;-89
2023/01/09 12:38:41;;;;;;;2.10;0.80;;;;;;;;;;5004416;28;20182;-89
2023/01/09 12:42:00;;;;;;;4.07;0.63;;;;;;;;;;4981823;28;20221;-89
2023/01/09 12:45:33;;;;;;;1.17;0.53;;;;;;;;;;4983334;28;20182;-90
2023/01/09 12:48:55;;;;;;;3.53;0.80;;;;;;;;;;4986320;28;20182;-88
2023/01/09 12:52:13;;;;;;;2.93;0.80;;;;;;;;;;4985758;28;20214;-86
2023/01/09 12:55:24;;;;;;;2.60;0.63;;;;;;;;;;4986860;28;20202;-86
2023/01/09 12:58:39;;;;;;;1.17;0.60;;;;;;;;;;4972498;28;20183;-84
2023/01/09 13:01:48;;;;;;;1.27;0.63;;;;;;;;;;4982450;28;20207;-85
2023/01/09 13:05:00;;;;;;;3.73;1.27;;;;;;;;;;4980655;28;20175;-86
2023/01/09 13:08:16;;;;;;;1.73;0.73;;;;;;;;;;4995764;28;20183;-85
2023/01/09 13:11:30;;;;;;;4.87;0.90;;;;;;;;;;4985728;28;20214;-86
2023/01/09 13:14:55;;;;;;;5.67;0.80;;;;;;;;;;4986834;28;20191;-86
2023/01/09 13:18:21;;;;;;;1.97;0.80;;;;;;;;;;4989570;28;20183;-86
2023/01/09 13:21:26;;;;;;;2.40;0.67;;;;;;;;;;4990341;28;20211;-86
2023/01/09 13:24:49;;;;;;;2.80;0.90;;;;;;;;;;4978023;28;20183;-85
2023/01/09 13:27:59;;;;;;;3.17;0.90;;;;;;;;;;4988269;28;20184;-85
2023/01/09 13:31:31;;;;;;;2.17;0.63;;;;;;;;;;4987527;28;20211;-84
2023/01/09 13:34:37;;;;;;;2.53;0.83;;;;;;;;;;4987551;28;20191;-83
2023/01/09 13:37:48;;;;;;;4.37;0.90;;;;;;;;;;4987104;28;20191;-86
2023/01/09 13:44:39;;;;;;;2.97;0.80;;;;;;;;;;4995607;28;20546;-85
2023/01/09 13:47:44;;;;;;;1.83;1.00;;;;;;;;;;4983924;28;20175;-85
2023/01/09 13:50:49;;;;;;;1.77;0.80;;;;;;;;;;4983302;28;20214;-86
2023/01/09 13:53:54;;;;;;;3.87;0.90;;;;;;;;;;4981319;28;20218;-86
2023/01/09 13:57:13;;;;;;;2.80;0.77;;;;;;;;;;4968029;28;20203;-90
2023/01/09 14:00:17;;;;;;;2.50;1.23;;;;;;;;;;4978635;28;20184;-87
2023/01/09 14:03:33;;;;;;;4.63;0.70;;;;;;;;;;4978551;28;20179;-86
2023/01/09 14:06:38;;;;;;;3.93;1.03;;;;;;;;;;4978511;28;20550;-87
2023/01/09 14:09:53;;;;;;;3.23;1.23;;;;;;;;;;4978225;28;20199;-87
2023/01/09 14:12:57;;;;;;;2.60;1.00;;;;;;;;;;4966847;28;20206;-88
2023/01/09 14:16:21;;;;;;;1.97;0.80;;;;;;;;;;4977622;28;20646;-88
2023/01/09 14:19:38;;;;;;;2.73;0.90;;;;;;;;;;4977288;28;20179;-88
2023/01/09 14:22:43;;;;;;;3.03;0.90;;;;;;;;;;4965884;28;20171;-89
2023/01/09 14:25:47;;;;;;;4.10;0.87;;;;;;;;;;4976559;28;20182;-87
2023/01/09 14:29:11;;;;;;;3.13;0.87;;;;;;;;;;4976392;28;20194;-88
2023/01/09 14:32:21;;;;;;;1.20;0.80;;;;;;;;;;4964628;28;20598;-88
2023/01/09 14:36:02;;;;;;;3.70;1.00;;;;;;;;;;4975937;28;20183;-88
2023/01/09 14:39:08;;;;;;;5.53;1.23;;;;;;;;;;4964807;28;20179;-87
2023/01/09 14:42:20;;;;;;;4.90;1.20;;;;;;;;;;4975977;28;20222;-88
2023/01/09 14:45:26;;;;;;;2.20;1.10;;;;;;;;;;4975733;28;20194;-89
2023/01/09 14:48:31;;;;;;;2.83;0.80;;;;;;;;;;4965204;28;20183;-87
2023/01/09 14:51:41;;;;;;;2.33;1.63;;;;;;;;;;4964738;28;20226;-87
2023/01/09 14:54:47;;;;;;;4.50;1.27;;;;;;;;;;4976445;28;20635;-86
2023/01/09 14:57:53;;;;;;;4.43;2.20;;;;;;;;;;4987655;28;20187;-88
2023/01/09 15:01:26;;;;;;;3.63;1.37;;;;;;;;;;4964128;28;20219;-87
2023/01/09 15:04:34;;;;;;;2.23;0.90;;;;;;;;;;4975613;28;20630;-86
2023/01/09 15:07:45;;;;;;;3.90;1.00;;;;;;;;;;4986652;28;20179;-88
2023/01/09 15:10:52;;;;;;;1.23;0.80;;;;;;;;;;4970614;28;20221;-87
2023/01/09 15:13:58;;;;;;;2.07;0.63;;;;;;;;;;4983399;28;20206;-88
2023/01/09 15:17:03;;;;;;;3.67;1.13;;;;;;;;;;4983463;28;20553;-87
2023/01/09 15:20:17;;;;;;;3.53;1.50;;;;;;;;;;4983368;28;20222;-87
2023/01/09 15:23:27;;;;;;;2.63;1.10;;;;;;;;;;4983098;28;20170;-87
2023/01/09 15:26:31;;;;;;;3.37;0.97;;;;;;;;;;4975040;28;20170;-87
2023/01/09 15:29:35;;;;;;;6.43;3.73;;;;;;;;;;4994924;28;20178;-87
2023/01/09 15:33:09;;;;;;;11.57;5.87;;;;;;;;;;4990357;28;20198;-89
2023/01/09 15:36:43;;;;;;;3.33;1.80;;;;;;;;;;4988261;28;20190;-91
2023/01/09 15:40:04;;;;;;;6.80;1.40;;;;;;;;;;4982036;28;20179;-90
2023/01/09 15:43:17;;;;;;;4.83;1.17;;;;;;;;;;4967670;28;20523;-91
2023/01/09 15:46:25;;;;;;;10.83;9.00;;;;;;;;;;4974821;28;20190;-89
2023/01/09 15:49:30;;;;;;;5.80;2.50;;;;;;;;;;4998224;28;20206;-87
2023/01/09 15:52:34;;;;;;;4.50;1.90;;;;;;;;;;4978240;28;20206;-87
2023/01/09 15:55:39;;;;;;;5.63;1.57;;;;;;;;;;5002404;28;20190;-87
2023/01/09 15:58:57;;;;;;;2.83;1.30;;;;;;;;;;4989844;28;20178;-87
2023/01/09 16:06:06;;;;;;;3.73;1.30;;;;;;;;;;4990289;28;20182;-86
2023/01/09 16:09:20;;;;;;;2.50;1.13;;;;;;;;;;5000287;28;20179;-86
2023/01/09 16:12:27;;;;;;;4.00;1.20;;;;;;;;;;4998765;28;20214;-86
2023/01/09 16:15:33;;;;;;;1.87;1.00;;;;;;;;;;4982944;28;20182;-90
2023/01/09 16:18:49;;;;;;;1.17;0.67;;;;;;;;;;4995078;28;20178;-91
2023/01/09 16:21:58;;;;;;;1.50;0.63;;;;;;;;;;5000054;28;20217;-88
2023/01/09 16:25:30;;;;;;;2.43;0.60;;;;;;;;;;4988986;28;20179;-88
2023/01/09 16:28:34;;;;;;;4.03;2.50;;;;;;;;;;4998929;28;20183;-88
2023/01/09 16:31:38;;;;;;;3.80;0.90;;;;;;;;;;4986986;28;20214;-88
2023/01/09 16:34:44;;;;;;;1.50;0.73;;;;;;;;;;4987697;28;20203;-88
2023/01/09 16:37:48;;;;;;;4.03;1.03;;;;;;;;;;4978691;28;20198;-89
2023/01/09 16:44:32;;;;;;;2.77;1.40;;;;;;;;;;5064648;23;20243;-89
2023/01/09 16:47:36;;;;;;;1.87;1.47;;;;;;;;;;4983343;28;20191;-83
2023/01/09 16:50:42;;;;;;;1.93;1.10;;;;;;;;;;4981075;28;20218;-84
2023/01/09 16:53:48;;;;;;;2.43;0.80;;;;;;;;;;4970353;28;20214;-85
2023/01/09 16:56:53;;;;;;;5.53;1.33;;;;;;;;;;4982100;28;20183;-84
2023/01/09 17:00:00;;;;;;;0.97;0.70;;;;;;;;;;4958246;28;20198;-84
2023/01/09 17:03:04;;;;;;;1.63;0.90;;;;;;;;;;4961559;28;20192;-85
2023/01/09 17:06:21;;;;;;;1.17;0.90;;;;;;;;;;4973424;28;20175;-86
2023/01/09 17:09:26;;;;;;;2.63;1.17;;;;;;;;;;4963060;28;20187;-84
2023/01/09 17:12:30;;;;;;;1.77;1.00;;;;;;;;;;4968112;28;20222;-88
2023/01/09 17:15:34;;;;;;;2.10;1.03;;;;;;;;;;4971132;28;20183;-87
2023/01/09 17:18:39;;;;;;;1.87;1.00;;;;;;;;;;4973022;28;20183;-87
2023/01/09 17:21:44;;;;;;;2.83;0.83;;;;;;;;;;4961639;28;20586;-87
2023/01/09 17:28:32;;;;;;;2.20;0.93;;;;;;;;;;4985328;28;20179;-86
2023/01/09 17:31:36;;;;;;;1.90;0.60;;;;;;;;;;4959991;28;20222;-87
2023/01/09 17:34:41;;;;;;;1.03;0.70;;;;;;;;;;4963236;28;20207;-86
2023/01/09 17:37:45;;;;;;;1.90;0.70;;;;;;;;;;4962649;28;20187;-87
2023/01/09 17:40:50;;;;;;;1.50;0.70;;;;;;;;;;4974844;28;20214;-87
2023/01/09 17:43:55;;;;;;;1.10;0.70;;;;;;;;;;4964029;28;20203;-87
2023/01/09 17:46:59;;;;;;;3.97;0.80;;;;;;;;;;4962603;28;20179;-87
2023/01/09 17:50:04;;;;;;;1.20;0.83;;;;;;;;;;4963875;28;20183;-86
2023/01/09 17:53:08;;;;;;;1.97;0.80;;;;;;;;;;4963174;28;20663;-89
2023/01/09 17:56:16;;;;;;;2.10;0.80;;;;;;;;;;4972481;28;20183;-86
2023/01/09 17:59:20;;;;;;;2.10;0.80;;;;;;;;;;4963033;28;20179;-87
2023/01/09 18:02:25;;;;;;;0.90;0.70;;;;;;;;;;4961261;28;20210;-87
2023/01/09 18:05:29;;;;;;;1.63;0.70;;;;;;;;;;4961601;28;20179;-88
2023/01/09 18:08:34;;;;;;;4.30;2.70;;;;;;;;;;4961188;28;20542;-88
2023/01/09 18:11:39;;;;;;;3.20;2.90;;;;;;;;;;4960744;28;20214;-88
2023/01/09 18:14:43;;;;;;;6.53;5.70;;;;;;;;;;4959772;28;20670;-88
2023/01/09 18:17:47;;;;;;;3.80;2.37;;;;;;;;;;4959675;28;20187;-88
2023/01/09 18:20:52;;;;;;;2.13;1.40;;;;;;;;;;4964798;28;20281;-87
2023/01/09 18:23:57;;;;;;;1.30;1.20;;;;;;;;;;4968496;28;20515;-88
2023/01/09 18:27:01;;;;;;;2.53;1.37;;;;;;;;;;4971071;28;20183;-87
2023/01/09 18:30:06;;;;;;;1.27;1.00;;;;;;;;;;4960266;28;20183;-88
2023/01/09 18:33:11;;;;;;;0.93;0.77;;;;;;;;;;4960065;28;20199;-87
2023/01/09 18:36:17;;;;;;;2.70;1.03;;;;;;;;;;4960676;28;20565;-87
2023/01/09 18:39:21;;;;;;;2.07;0.80;;;;;;;;;;4960512;28;20175;-87
2023/01/09 18:42:25;;;;;;;1.43;0.90;;;;;;;;;;4963573;28;20219;-88
2023/01/09 18:45:31;;;;;;;1.57;0.83;;;;;;;;;;4959911;28;20195;-88
2023/01/09 18:48:35;;;;;;;1.20;1.00;;;;;;;;;;4971157;28;20203;-87
2023/01/09 18:51:39;;;;;;;1.43;0.90;;;;;;;;;;4959164;28;20214;-88
2023/01/09 18:54:43;;;;;;;1.37;0.90;;;;;;;;;;4959114;28;20210;-89
2023/01/09 18:57:48;;;;;;;1.90;1.30;;;;;;;;;;4970103;28;20199;-87
2023/01/09 19:00:54;;;;;;;1.40;1.07;;;;;;;;;;4954723;28;20214;-88
2023/01/09 19:03:58;;;;;;;2.63;1.00;;;;;;;;;;4965439;28;20191;-88
2023/01/09 19:07:02;;;;;;;1.10;1.00;;;;;;;;;;4954511;28;20218;-88
2023/01/09 19:10:08;;;;;;;2.43;1.10;;;;;;;;;;4953880;28;20182;-88
2023/01/09 19:13:12;;;;;;;2.43;1.20;;;;;;;;;;4975556;28;20568;-88
2023/01/09 19:16:17;;;;;;;3.00;1.40;;;;;;;;;;4964283;28;20175;-87